Time;durP1;ratioP1;P1;durP2;ratioP2;P2;SDS_P1;SDS_P2;PMS_P1;PMS_P2;Temp;Humidity;BMP_temperature;BMP_pressure;BME280_temperature;BME280_humidity;BME280_pressure;Samples;Min_cycle;Max_cycle;Signal;HPM_P1;HPM_P2
2024/04/10 00:02:19;;;;;;;0.60;0.60;;;;;;;4.94;100.00;92551.22;5342398;26;20553;-79
2024/04/10 00:04:48;;;;;;;0.55;0.55;;;;;;;5.05;100.00;92570.22;5340263;26;20000;-79
2024/04/10 00:07:14;;;;;;;2.13;0.80;;;;;;;5.04;100.00;92566.84;5341984;26;20352;-80
2024/04/10 00:09:41;;;;;;;0.50;0.50;;;;;;;5.05;100.00;92604.75;5340988;26;20013;-80
2024/04/10 00:12:07;;;;;;;0.50;0.50;;;;;;;5.09;100.00;92598.03;5330828;26;20084;-79
2024/04/10 00:14:37;;;;;;;0.57;0.57;;;;;;;4.95;100.00;92582.09;5334084;26;20016;-80
2024/04/10 00:17:03;;;;;;;0.50;0.50;;;;;;;4.96;100.00;92575.88;5345598;26;20005;-78
2024/04/10 00:19:29;;;;;;;0.60;0.60;;;;;;;4.99;100.00;92606.50;5345782;26;20428;-80
2024/04/10 00:21:54;;;;;;;0.70;0.70;;;;;;;5.01;100.00;92601.06;5332457;26;20013;-78
2024/04/10 00:24:21;;;;;;;0.95;0.80;;;;;;;4.89;100.00;92613.44;5345376;26;20013;-78
2024/04/10 00:26:50;;;;;;;0.60;0.60;;;;;;;4.76;100.00;92630.97;5345937;26;20008;-77
2024/04/10 00:29:16;;;;;;;0.70;0.70;;;;;;;4.53;100.00;92616.50;5332916;26;20025;-77
2024/04/10 00:31:42;;;;;;;0.70;0.70;;;;;;;4.43;100.00;92619.00;5347526;26;20016;-77
2024/04/10 00:34:08;;;;;;;0.60;0.60;;;;;;;4.48;100.00;92618.25;5345933;26;20009;-78
2024/04/10 00:36:35;;;;;;;0.55;0.52;;;;;;;4.51;100.00;92618.56;5346418;26;20339;-77
2024/04/10 00:39:01;;;;;;;0.70;0.70;;;;;;;4.53;100.00;92613.91;5346571;26;20007;-78
2024/04/10 00:41:26;;;;;;;0.70;0.70;;;;;;;4.63;100.00;92581.31;5347330;26;20440;-77
2024/04/10 00:43:52;;;;;;;0.60;0.60;;;;;;;4.60;100.00;92590.38;5345346;26;20001;-77
2024/04/10 00:46:22;;;;;;;0.70;0.70;;;;;;;4.69;100.00;92583.72;5344676;26;20020;-78
2024/04/10 00:48:49;;;;;;;0.63;0.63;;;;;;;4.76;100.00;92594.66;5345382;26;20008;-76
2024/04/10 00:51:20;;;;;;;0.65;0.65;;;;;;;4.62;100.00;92609.06;5341262;26;20013;-80
2024/04/10 00:53:47;;;;;;;0.40;0.40;;;;;;;4.50;100.00;92611.81;5346017;26;20014;-80
2024/04/10 00:56:13;;;;;;;0.55;0.55;;;;;;;4.31;100.00;92626.91;5335802;26;20005;-78
2024/04/10 00:58:40;;;;;;;0.60;0.60;;;;;;;4.24;100.00;92620.38;5346232;26;19997;-79
2024/04/10 01:01:08;;;;;;;0.60;0.60;;;;;;;4.16;100.00;92631.94;5346156;26;20001;-80
2024/04/10 01:03:36;;;;;;;0.60;0.60;;;;;;;4.18;100.00;92609.16;5347387;26;20005;-78
2024/04/10 01:06:04;;;;;;;0.70;0.70;;;;;;;4.11;100.00;92624.09;5345551;26;20004;-78
2024/04/10 01:08:31;;;;;;;0.75;0.75;;;;;;;4.06;100.00;92629.25;5346363;26;20001;-80
2024/04/10 01:11:02;;;;;;;0.90;0.60;;;;;;;4.14;100.00;92615.84;5364208;26;20002;-80
2024/04/10 01:13:28;;;;;;;0.60;0.60;;;;;;;4.14;100.00;92614.06;5347741;26;20421;-79
2024/04/10 01:15:54;;;;;;;0.50;0.50;;;;;;;4.15;100.00;92630.38;5347454;26;20011;-79
2024/04/10 01:18:20;;;;;;;0.60;0.60;;;;;;;4.12;100.00;92610.13;5345068;26;20037;-79
2024/04/10 01:20:48;;;;;;;0.95;0.88;;;;;;;4.14;100.00;92614.06;5347069;26;20075;-79
2024/04/10 01:23:15;;;;;;;0.50;0.50;;;;;;;4.20;100.00;92607.09;5346631;26;20012;-79
2024/04/10 01:25:41;;;;;;;1.20;0.55;;;;;;;4.21;100.00;92613.88;5345754;26;20369;-80
2024/04/10 01:28:07;;;;;;;0.70;0.65;;;;;;;4.20;100.00;92616.69;5342594;26;19997;-79
2024/04/10 01:30:34;;;;;;;0.60;0.60;;;;;;;4.24;100.00;92613.38;5335159;26;20395;-79
2024/04/10 01:32:59;;;;;;;5.15;0.70;;;;;;;4.22;100.00;92599.88;5346396;26;19997;-78
2024/04/10 01:35:25;;;;;;;0.60;0.60;;;;;;;4.22;100.00;92605.06;5344459;26;20008;-80
2024/04/10 01:37:52;;;;;;;0.50;0.50;;;;;;;4.46;100.00;92600.38;5345813;26;20469;-79
2024/04/10 01:40:17;;;;;;;0.70;0.70;;;;;;;4.33;100.00;92606.72;5345722;26;20024;-79
2024/04/10 01:42:44;;;;;;;0.70;0.70;;;;;;;4.25;100.00;92594.19;5343359;26;20007;-79
2024/04/10 01:45:10;;;;;;;0.60;0.60;;;;;;;4.10;100.00;92609.59;5343762;26;20085;-78
2024/04/10 01:47:36;;;;;;;0.70;0.70;;;;;;;4.16;100.00;92595.66;5341969;26;20001;-78
2024/04/10 01:50:02;;;;;;;0.80;0.80;;;;;;;4.18;100.00;92609.16;5344036;26;20012;-79
2024/04/10 01:52:28;;;;;;;0.70;0.70;;;;;;;4.10;100.00;92604.41;5391767;26;19997;-78
2024/04/10 01:54:53;;;;;;;0.55;0.55;;;;;;;4.06;100.00;92604.13;5337013;26;20012;-79
2024/04/10 01:57:19;;;;;;;0.70;0.70;;;;;;;4.03;100.00;92602.03;5342641;26;20257;-79
2024/04/10 01:59:45;;;;;;;0.70;0.70;;;;;;;4.16;100.00;92588.66;5344442;26;20000;-78
2024/04/10 02:02:10;;;;;;;1.30;0.70;;;;;;;4.09;100.00;92572.53;5344434;26;20005;-80
2024/04/10 02:04:36;;;;;;;0.60;0.60;;;;;;;4.08;100.00;92577.97;5342263;26;19997;-80
2024/04/10 02:07:03;;;;;;;0.85;0.52;;;;;;;4.16;100.00;92567.16;5342663;26;20005;-79
2024/04/10 02:09:29;;;;;;;0.57;0.57;;;;;;;4.23;100.00;92557.38;5345494;26;20001;-79
2024/04/10 02:11:54;;;;;;;0.68;0.60;;;;;;;4.30;100.00;92563.16;5314958;26;20079;-78
2024/04/10 02:14:20;;;;;;;1.02;0.80;;;;;;;4.33;100.00;92554.13;5345623;26;20385;-78
2024/04/10 02:16:46;;;;;;;0.70;0.70;;;;;;;4.27;100.00;92555.09;5343972;26;20595;-79
2024/04/10 02:19:13;;;;;;;0.50;0.50;;;;;;;4.38;100.00;92536.78;5342324;26;20050;-78
2024/04/10 02:21:38;;;;;;;3.15;0.70;;;;;;;4.33;100.00;92539.34;5345260;26;20059;-79
2024/04/10 02:24:08;;;;;;;0.60;0.60;;;;;;;4.32;100.00;92553.34;5338496;26;20005;-79
2024/04/10 02:26:34;;;;;;;0.50;0.50;;;;;;;4.40;100.00;92556.50;5345328;26;20001;-79
2024/04/10 02:29:00;;;;;;;0.70;0.70;;;;;;;4.43;100.00;92540.44;5345841;26;20019;-79
2024/04/10 02:31:26;;;;;;;0.75;0.75;;;;;;;4.42;100.00;92544.84;5345732;26;20001;-78
2024/04/10 02:33:52;;;;;;;1.63;0.70;;;;;;;4.47;100.00;92542.31;5342493;26;20518;-78
2024/04/10 02:36:18;;;;;;;0.75;0.70;;;;;;;4.42;100.00;92538.91;5335304;26;20009;-79
2024/04/10 02:38:44;;;;;;;1.25;0.55;;;;;;;4.62;100.00;92546.84;5338274;26;19997;-79
2024/04/10 02:41:10;;;;;;;0.60;0.60;;;;;;;4.78;100.00;92543.31;5342971;26;20450;-79
2024/04/10 02:43:36;;;;;;;1.20;0.63;;;;;;;4.66;100.00;92519.38;5344741;26;20001;-79
2024/04/10 02:46:05;;;;;;;0.80;0.80;;;;;;;4.75;100.00;92519.69;5338266;26;20001;-79
2024/04/10 02:48:31;;;;;;;1.30;0.80;;;;;;;4.67;100.00;92509.78;5342916;26;20001;-79
2024/04/10 02:50:58;;;;;;;0.70;0.70;;;;;;;4.80;100.00;92494.59;5381470;26;20471;-78
2024/04/10 02:53:24;;;;;;;1.77;0.80;;;;;;;4.76;100.00;92488.31;5343417;26;20009;-78
2024/04/10 02:55:52;;;;;;;0.63;0.63;;;;;;;4.74;100.00;92481.81;5343620;26;20484;-78
2024/04/10 02:58:18;;;;;;;0.70;0.70;;;;;;;4.82;100.00;92512.50;5343130;26;20008;-79
2024/04/10 03:00:48;;;;;;;0.85;0.70;;;;;;;4.77;100.00;92487.31;5345289;26;20531;-80
2024/04/10 03:03:14;;;;;;;1.13;0.70;;;;;;;4.70;100.00;92450.41;5344626;26;20026;-78
2024/04/10 03:05:40;;;;;;;1.27;0.60;;;;;;;4.80;100.00;92447.91;5346286;26;20001;-80
2024/04/10 03:08:06;;;;;;;0.60;0.60;;;;;;;4.65;100.00;92447.81;5345545;26;20004;-78
2024/04/10 03:10:32;;;;;;;0.82;0.82;;;;;;;4.82;100.00;92447.66;5332834;26;20029;-78
2024/04/10 03:12:58;;;;;;;0.85;0.60;;;;;;;4.77;100.00;92445.81;5340823;26;20444;-76
2024/04/10 03:15:23;;;;;;;0.60;0.60;;;;;;;4.78;100.00;92454.38;5345057;26;20559;-78
2024/04/10 03:17:50;;;;;;;4.95;0.60;;;;;;;4.80;100.00;92434.94;5344319;26;20597;-78
2024/04/10 03:20:19;;;;;;;2.65;0.70;;;;;;;4.82;100.00;92433.88;5356754;26;20012;-77
2024/04/10 03:22:46;;;;;;;2.10;0.50;;;;;;;4.80;100.00;92408.22;5342231;26;20001;-79
2024/04/10 03:25:12;;;;;;;0.43;0.43;;;;;;;4.76;100.00;92397.56;5342579;26;20005;-78
2024/04/10 03:27:40;;;;;;;0.43;0.43;;;;;;;4.86;100.00;92380.47;5343760;26;19996;-78
2024/04/10 03:30:09;;;;;;;0.75;0.63;;;;;;;4.94;100.00;92413.72;5344448;26;19997;-78
2024/04/10 03:32:35;;;;;;;0.45;0.45;;;;;;;4.99;100.00;92405.97;5343246;26;19996;-79
2024/04/10 03:35:01;;;;;;;0.40;0.40;;;;;;;5.11;100.00;92401.34;5343172;26;20000;-78
2024/04/10 03:37:26;;;;;;;0.60;0.60;;;;;;;5.10;100.00;92436.09;5314349;26;20074;-77
2024/04/10 03:39:52;;;;;;;0.95;0.77;;;;;;;5.13;100.00;92452.97;5345148;26;20001;-78
2024/04/10 03:42:22;;;;;;;0.50;0.50;;;;;;;5.18;100.00;92425.25;5343001;26;19997;-78
2024/04/10 03:44:49;;;;;;;0.80;0.60;;;;;;;5.19;100.00;92463.13;5342019;26;20064;-78
2024/04/10 03:47:15;;;;;;;1.17;0.70;;;;;;;5.26;100.00;92412.81;5332810;26;20012;-78
2024/04/10 03:49:41;;;;;;;3.70;0.70;;;;;;;5.17;100.00;92423.66;5341090;26;20005;-79
2024/04/10 03:52:07;;;;;;;0.60;0.60;;;;;;;5.25;100.00;92439.81;5345353;26;20011;-78
2024/04/10 03:54:33;;;;;;;0.85;0.60;;;;;;;5.31;100.00;92447.34;5344357;26;20005;-78
2024/04/10 03:57:00;;;;;;;1.20;0.63;;;;;;;5.19;100.00;92462.34;5343840;26;19997;-78
2024/04/10 03:59:26;;;;;;;1.17;0.60;;;;;;;5.39;100.00;92452.03;5345236;26;20459;-79
2024/04/10 04:01:52;;;;;;;2.17;0.70;;;;;;;5.38;100.00;92453.09;5328305;26;20016;-77
2024/04/10 04:04:24;;;;;;;0.50;0.50;;;;;;;5.46;100.00;92472.56;5343244;26;20012;-79
2024/04/10 04:06:50;;;;;;;0.57;0.57;;;;;;;5.44;100.00;92469.44;5346877;26;20077;-78
2024/04/10 04:09:16;;;;;;;0.60;0.60;;;;;;;5.47;100.00;92479.34;5341958;26;20016;-77
2024/04/10 04:11:42;;;;;;;0.52;0.52;;;;;;;5.48;100.00;92483.50;5343803;26;20005;-78
2024/04/10 04:14:07;;;;;;;0.57;0.57;;;;;;;5.35;100.00;92465.78;5344964;26;20001;-78
2024/04/10 04:16:34;;;;;;;0.50;0.50;;;;;;;5.35;100.00;92497.72;5343485;26;20505;-78
2024/04/10 04:19:01;;;;;;;0.73;0.73;;;;;;;5.50;100.00;92510.00;5331127;26;20002;-79
2024/04/10 04:21:27;;;;;;;0.60;0.60;;;;;;;5.52;100.00;92523.50;5343604;26;20001;-78
2024/04/10 04:23:54;;;;;;;0.60;0.60;;;;;;;5.49;100.00;92511.00;5342820;26;20016;-79
2024/04/10 04:26:20;;;;;;;0.63;0.63;;;;;;;5.55;100.00;92512.59;5344764;26;20466;-78
2024/04/10 04:28:46;;;;;;;0.55;0.55;;;;;;;5.54;100.00;92521.44;5344456;26;20494;-77
2024/04/10 04:31:15;;;;;;;0.70;0.70;;;;;;;5.55;100.00;92499.63;5343278;26;20001;-78
2024/04/10 04:33:41;;;;;;;0.70;0.60;;;;;;;5.55;100.00;92510.00;5313914;26;19997;-78
2024/04/10 04:36:07;;;;;;;0.60;0.60;;;;;;;5.65;100.00;92514.44;5346626;26;20016;-77
2024/04/10 04:38:33;;;;;;;0.70;0.70;;;;;;;5.67;100.00;92519.38;5343133;26;20012;-77
2024/04/10 04:41:00;;;;;;;0.75;0.70;;;;;;;5.59;100.00;92505.88;5342601;26;20005;-78
2024/04/10 04:43:26;;;;;;;1.17;0.70;;;;;;;5.61;100.00;92483.03;5338982;26;20466;-77
2024/04/10 04:45:51;;;;;;;0.82;0.82;;;;;;;5.66;100.00;92494.47;5339091;26;20013;-77
2024/04/10 04:48:17;;;;;;;1.05;0.65;;;;;;;5.64;100.00;92485.09;5342270;26;20012;-76
2024/04/10 04:50:46;;;;;;;1.15;0.68;;;;;;;5.69;100.00;92506.94;5339419;26;20016;-78
2024/04/10 04:53:13;;;;;;;0.68;0.68;;;;;;;5.64;100.00;92513.66;5336960;26;20008;-77
2024/04/10 04:55:41;;;;;;;1.65;0.63;;;;;;;5.64;100.00;92524.06;5340062;26;20005;-78
2024/04/10 04:58:07;;;;;;;1.15;0.70;;;;;;;5.67;100.00;92537.56;5339671;26;20317;-77
2024/04/10 05:00:33;;;;;;;0.75;0.60;;;;;;;5.75;100.00;92524.88;5338904;26;20009;-77
2024/04/10 05:03:00;;;;;;;1.33;1.10;;;;;;;5.76;100.00;92525.66;5338269;26;20001;-77
2024/04/10 05:05:26;;;;;;;0.73;0.50;;;;;;;5.85;100.00;92521.53;5336137;26;20009;-77
2024/04/10 05:07:52;;;;;;;0.70;0.70;;;;;;;5.72;100.00;92516.81;5333844;26;20005;-79
2024/04/10 05:10:19;;;;;;;0.75;0.65;;;;;;;5.91;100.00;92512.72;5338757;26;20005;-78
2024/04/10 05:12:45;;;;;;;0.85;0.73;;;;;;;5.88;100.00;92505.44;5326731;26;20052;-78
2024/04/10 05:15:12;;;;;;;1.20;0.60;;;;;;;5.90;100.00;92498.16;5343239;26;20015;-77
2024/04/10 05:17:45;;;;;;;0.63;0.60;;;;;;;5.89;100.00;92491.41;5336559;26;20079;-77
2024/04/10 05:20:14;;;;;;;0.55;0.55;;;;;;;5.81;100.00;92484.13;5316637;26;20433;-77
2024/04/10 05:22:43;;;;;;;0.75;0.60;;;;;;;5.90;100.00;92495.56;5337660;26;20460;-77
2024/04/10 05:25:10;;;;;;;0.50;0.50;;;;;;;5.94;100.00;92501.03;5339852;26;19996;-77
2024/04/10 05:27:37;;;;;;;1.75;1.10;;;;;;;5.93;97.53;92497.66;5337466;26;19997;-76
2024/04/10 05:30:08;;;;;;;3.40;0.60;;;;;;;5.82;100.00;92496.06;5338921;26;20004;-76
2024/04/10 05:32:37;;;;;;;0.52;0.52;;;;;;;5.88;99.29;92521.03;5332724;26;20297;-77
2024/04/10 05:35:10;;;;;;;1.15;0.70;;;;;;;5.95;93.24;92531.97;5332143;26;20001;-77
2024/04/10 05:37:37;;;;;;;0.80;0.63;;;;;;;6.10;100.00;92513.03;5331115;26;20063;-79
2024/04/10 05:40:06;;;;;;;0.60;0.60;;;;;;;6.11;94.31;92537.22;5340020;26;20062;-77
2024/04/10 05:42:41;;;;;;;0.98;0.88;;;;;;;6.16;92.02;92532.03;5339715;26;20001;-77
2024/04/10 05:45:09;;;;;;;2.75;0.85;;;;;;;6.19;94.52;92536.69;5337135;26;20066;-77
2024/04/10 05:47:39;;;;;;;0.98;0.70;;;;;;;6.24;90.86;92531.53;5339818;26;19996;-77
2024/04/10 05:50:10;;;;;;;0.73;0.52;;;;;;;6.19;94.92;92547.09;5336040;26;20009;-77
2024/04/10 05:52:39;;;;;;;2.10;0.70;;;;;;;6.27;90.01;92553.63;5334081;26;20694;-78
2024/04/10 05:55:05;;;;;;;1.08;0.80;;;;;;;6.36;87.88;92573.66;5337674;26;20008;-77
2024/04/10 05:57:31;;;;;;;0.60;0.60;;;;;;;6.23;92.08;92580.13;5337483;26;20074;-77
2024/04/10 05:59:57;;;;;;;1.13;0.73;;;;;;;6.27;87.17;92559.59;5329291;26;20001;-77
2024/04/10 06:02:24;;;;;;;0.70;0.70;;;;;;;6.37;87.62;92564.84;5335572;26;20359;-77
2024/04/10 06:04:57;;;;;;;0.60;0.60;;;;;;;6.41;84.76;92572.88;5334275;26;20005;-77
2024/04/10 06:07:23;;;;;;;0.57;0.57;;;;;;;6.39;86.58;92583.53;5325782;26;20128;-77
2024/04/10 06:09:55;;;;;;;0.60;0.60;;;;;;;6.57;80.35;92558.84;5337138;26;20423;-77
2024/04/10 06:12:22;;;;;;;0.70;0.70;;;;;;;6.63;79.53;92564.84;5325485;26;20376;-77
2024/04/10 06:14:52;;;;;;;2.22;0.60;;;;;;;6.70;76.00;92535.97;5334753;26;20669;-77
2024/04/10 06:17:20;;;;;;;0.60;0.60;;;;;;;6.71;78.54;92564.34;5335381;26;20589;-77
2024/04/10 06:19:49;;;;;;;0.60;0.60;;;;;;;6.78;72.89;92559.66;5334953;26;20048;-77
2024/04/10 06:22:16;;;;;;;0.55;0.55;;;;;;;6.81;77.38;92543.53;5325096;26;20473;-77
2024/04/10 06:24:44;;;;;;;0.88;0.77;;;;;;;6.91;79.89;92550.53;5337872;26;20019;-77
2024/04/10 06:27:11;;;;;;;0.60;0.60;;;;;;;7.03;75.08;92561.47;5334784;26;20660;-77
2024/04/10 06:29:47;;;;;;;0.60;0.60;;;;;;;7.09;72.42;92539.59;5394743;26;19997;-77
2024/04/10 06:32:14;;;;;;;1.10;0.80;;;;;;;6.99;76.91;92550.00;5338137;26;20001;-79
2024/04/10 06:34:40;;;;;;;2.55;0.70;;;;;;;6.93;76.79;92532.06;5335347;26;20383;-77
2024/04/10 06:37:06;;;;;;;3.33;0.70;;;;;;;6.93;75.35;92519.06;5337989;26;20075;-77
2024/04/10 06:39:33;;;;;;;0.80;0.80;;;;;;;6.93;78.99;92540.63;5336367;26;20012;-77
2024/04/10 06:41:59;;;;;;;0.60;0.60;;;;;;;7.00;75.30;92515.16;5337709;26;19997;-79
2024/04/10 06:44:24;;;;;;;0.70;0.70;;;;;;;7.02;75.05;92527.88;5335650;26;20004;-79
2024/04/10 06:46:50;;;;;;;2.05;0.95;;;;;;;6.96;79.53;92529.72;5335434;26;20062;-76
2024/04/10 06:49:16;;;;;;;3.42;0.80;;;;;;;7.12;71.36;92508.88;5335732;26;20001;-79
2024/04/10 06:51:41;;;;;;;0.65;0.65;;;;;;;7.05;74.76;92503.94;5334928;26;20464;-79
2024/04/10 06:54:07;;;;;;;0.60;0.60;;;;;;;7.07;74.43;92499.25;5337083;26;20000;-77
2024/04/10 06:56:34;;;;;;;1.88;0.90;;;;;;;7.02;76.06;92509.66;5336782;26;19997;-77
2024/04/10 06:59:00;;;;;;;1.27;0.60;;;;;;;6.98;78.29;92511.22;5337785;26;20435;-78
2024/04/10 07:01:26;;;;;;;6.43;0.70;;;;;;;7.07;76.45;92504.47;5337711;26;20519;-77
2024/04/10 07:03:52;;;;;;;2.35;0.80;;;;;;;7.18;71.54;92511.22;5335210;26;20008;-79
2024/04/10 07:06:17;;;;;;;0.70;0.70;;;;;;;7.06;71.98;92515.91;5338452;26;20073;-78
2024/04/10 07:08:45;;;;;;;0.98;0.80;;;;;;;7.08;75.57;92517.19;5338433;26;20000;-78
2024/04/10 07:11:14;;;;;;;0.85;0.68;;;;;;;7.12;72.85;92530.47;5339333;26;20313;-78
2024/04/10 07:13:46;;;;;;;1.23;0.73;;;;;;;7.12;77.50;92521.91;5340742;26;20037;-78
2024/04/10 07:16:12;;;;;;;1.02;0.77;;;;;;;7.10;73.67;92522.16;5338216;26;20008;-77
2024/04/10 07:18:38;;;;;;;0.70;0.70;;;;;;;7.14;74.79;92535.41;5339053;26;20051;-77
2024/04/10 07:21:07;;;;;;;0.63;0.60;;;;;;;7.20;73.27;92542.94;5340041;26;20001;-78
2024/04/10 07:23:40;;;;;;;2.60;0.60;;;;;;;7.23;70.76;92539.84;5340361;26;20000;-78
2024/04/10 07:26:24;;;;;;;0.88;0.75;;;;;;;7.20;72.29;92545.56;5325389;26;20472;-77
2024/04/10 07:28:52;;;;;;;2.25;0.95;;;;;;;7.24;75.51;92551.78;5341491;26;20012;-78
2024/04/10 07:31:21;;;;;;;1.00;0.90;;;;;;;7.29;71.43;92543.19;5291318;27;20001;-78
2024/04/10 07:33:50;;;;;;;0.52;0.52;;;;;;;7.27;70.55;92545.28;5333556;26;20164;-78
2024/04/10 07:36:18;;;;;;;2.75;1.35;;;;;;;7.31;73.27;92548.91;5325260;26;19997;-78
2024/04/10 07:38:44;;;;;;;1.15;0.73;;;;;;;7.28;68.45;92563.25;5338613;26;20005;-78
2024/04/10 07:41:10;;;;;;;0.50;0.50;;;;;;;7.28;71.68;92547.63;5339682;26;20013;-78
2024/04/10 07:43:36;;;;;;;0.60;0.60;;;;;;;7.25;69.26;92548.16;5340380;26;19997;-78
2024/04/10 07:46:21;;;;;;;0.52;0.50;;;;;;;7.28;68.06;92539.03;5339395;26;20015;-77
2024/04/10 07:48:55;;;;;;;0.82;0.60;;;;;;;7.30;67.80;92553.34;5340387;26;20497;-78
2024/04/10 07:51:21;;;;;;;0.60;0.60;;;;;;;7.43;66.56;92574.66;5326983;26;20004;-78
2024/04/10 07:53:48;;;;;;;0.90;0.63;;;;;;;7.40;67.19;92575.97;5340563;26;20001;-78
2024/04/10 07:56:14;;;;;;;2.15;0.82;;;;;;;7.34;69.60;92568.44;5309913;26;20012;-78
2024/04/10 07:58:40;;;;;;;0.70;0.60;;;;;;;7.40;70.66;92580.41;5340053;26;20009;-78
2024/04/10 08:01:08;;;;;;;0.70;0.70;;;;;;;7.46;67.38;92592.41;5338461;26;20019;-78
2024/04/10 08:03:34;;;;;;;0.80;0.80;;;;;;;7.54;71.11;92581.41;5340016;26;20059;-78
2024/04/10 08:06:05;;;;;;;0.85;0.55;;;;;;;7.51;73.74;92576.75;5340635;26;20012;-79
2024/04/10 08:08:30;;;;;;;0.80;0.80;;;;;;;7.50;81.84;92580.41;5339369;26;20001;-78
2024/04/10 08:11:02;;;;;;;0.90;0.90;;;;;;;7.43;81.49;92564.25;5339830;26;20324;-78
2024/04/10 08:13:29;;;;;;;1.15;0.57;;;;;;;7.34;85.13;92576.25;5339370;26;20005;-78
2024/04/10 08:15:58;;;;;;;1.83;0.70;;;;;;;7.32;90.47;92567.91;5341961;26;20024;-78
2024/04/10 08:18:29;;;;;;;0.60;0.57;;;;;;;7.18;94.50;92567.69;5340995;26;20109;-78
2024/04/10 08:21:21;;;;;;;0.73;0.73;;;;;;;6.90;100.00;92597.66;5340434;26;20024;-78
2024/04/10 08:23:46;;;;;;;0.95;0.95;;;;;;;6.66;100.00;92583.34;5338143;26;20048;-79
2024/04/10 08:26:17;;;;;;;4.20;0.82;;;;;;;6.59;100.00;92574.22;5337791;26;20008;-78
2024/04/10 08:28:50;;;;;;;2.15;0.85;;;;;;;6.42;100.00;92549.22;5338193;26;20322;-78
2024/04/10 08:31:23;;;;;;;0.52;0.52;;;;;;;6.36;100.00;92563.25;5340868;26;20009;-78
2024/04/10 08:33:51;;;;;;;2.25;0.85;;;;;;;6.33;100.00;92607.22;5326312;26;20016;-78
2024/04/10 08:36:17;;;;;;;0.43;0.43;;;;;;;6.32;100.00;92608.22;5328931;26;20016;-78
2024/04/10 08:38:43;;;;;;;1.05;0.70;;;;;;;6.20;100.00;92605.88;5344002;26;20001;-78
2024/04/10 08:41:13;;;;;;;0.60;0.60;;;;;;;6.24;100.00;92627.72;5343685;26;20004;-78
2024/04/10 08:43:43;;;;;;;1.33;0.70;;;;;;;6.27;100.00;92639.41;5344010;26;20001;-78
2024/04/10 08:46:09;;;;;;;8.40;0.80;;;;;;;6.28;100.00;92639.16;5339696;26;20006;-78
2024/04/10 08:48:37;;;;;;;1.83;0.60;;;;;;;6.32;100.00;92665.44;5319391;26;20159;-78
2024/04/10 08:51:08;;;;;;;1.20;0.70;;;;;;;6.34;100.00;92687.53;5322334;26;20016;-78
2024/04/10 08:53:35;;;;;;;0.85;0.85;;;;;;;6.40;100.00;92686.53;5318635;26;19997;-78
2024/04/10 08:56:01;;;;;;;0.57;0.57;;;;;;;6.56;100.00;92673.56;5296983;26;20006;-77
2024/04/10 08:58:27;;;;;;;0.88;0.82;;;;;;;6.42;100.00;92722.69;5285197;26;20353;-78
2024/04/10 09:00:53;;;;;;;0.90;0.60;;;;;;;6.43;100.00;92726.84;5317807;26;19997;-77
2024/04/10 09:03:18;;;;;;;0.60;0.60;;;;;;;6.42;100.00;92725.28;5319617;26;20017;-77
2024/04/10 09:05:44;;;;;;;1.17;0.63;;;;;;;6.36;100.00;92749.69;5269091;27;20049;-77
2024/04/10 09:08:10;;;;;;;0.60;0.60;;;;;;;6.37;100.00;92753.84;5321645;26;20013;-77
2024/04/10 09:10:36;;;;;;;0.70;0.70;;;;;;;6.34;100.00;92744.75;5320814;26;20455;-78
2024/04/10 09:13:13;;;;;;;0.70;0.70;;;;;;;6.40;100.00;92761.94;5325974;26;20346;-78
2024/04/10 09:15:39;;;;;;;2.00;0.80;;;;;;;6.48;100.00;92776.25;5334642;26;20025;-78
2024/04/10 09:18:06;;;;;;;0.70;0.70;;;;;;;6.41;100.00;92745.28;5336250;26;20009;-79
2024/04/10 09:20:32;;;;;;;0.60;0.60;;;;;;;6.38;100.00;92768.44;5304752;26;20083;-78
2024/04/10 09:23:05;;;;;;;0.60;0.60;;;;;;;6.44;100.00;92767.44;5331887;26;20551;-78
2024/04/10 09:25:32;;;;;;;0.80;0.80;;;;;;;6.51;100.00;92769.75;5330654;26;20010;-78
2024/04/10 09:28:03;;;;;;;4.15;0.90;;;;;;;6.42;100.00;92778.06;5333001;26;20001;-78
2024/04/10 09:30:37;;;;;;;0.75;0.75;;;;;;;6.40;100.00;92772.34;5328549;26;20002;-78
2024/04/10 09:33:04;;;;;;;2.05;0.93;;;;;;;6.41;100.00;92771.28;5317861;26;20006;-77
2024/04/10 09:35:31;;;;;;;0.80;0.80;;;;;;;6.29;100.00;92788.91;5330105;26;20288;-78
2024/04/10 09:38:03;;;;;;;1.83;0.93;;;;;;;6.13;100.00;92766.47;5316390;26;20087;-78
2024/04/10 09:40:30;;;;;;;;;;;;;;;5.92;100.00;92760.31;5320067;26;20618;-78
2024/04/10 09:43:07;;;;;;;0.80;0.80;;;;;;;5.92;100.00;92760.31;5320975;26;19926;-78
2024/04/10 09:45:37;;;;;;;0.90;0.80;;;;;;;5.87;100.00;92692.75;5317491;26;20526;-78
2024/04/10 09:48:08;;;;;;;0.70;0.70;;;;;;;5.95;100.00;92724.28;5326742;26;20001;-78
2024/04/10 09:50:39;;;;;;;1.60;0.80;;;;;;;6.01;100.00;92681.69;5321982;26;20001;-78
2024/04/10 09:53:06;;;;;;;0.73;0.73;;;;;;;6.23;100.00;92672.94;5312081;26;20236;-78
2024/04/10 09:55:37;;;;;;;0.70;0.70;;;;;;;6.38;100.00;92644.38;5320233;26;20013;-78
2024/04/10 09:58:07;;;;;;;0.70;0.70;;;;;;;6.47;100.00;92642.84;5314812;26;20016;-78
2024/04/10 10:00:35;;;;;;;1.10;0.88;;;;;;;6.61;100.00;92644.97;5309627;26;20440;-78
2024/04/10 10:03:08;;;;;;;2.67;0.70;;;;;;;6.67;100.00;92649.16;5308855;26;20009;-78
2024/04/10 10:05:37;;;;;;;0.80;0.80;;;;;;;6.73;100.00;92642.88;5323717;26;20001;-78
2024/04/10 10:08:12;;;;;;;0.65;0.65;;;;;;;6.88;100.00;92655.94;5309825;26;20464;-78
2024/04/10 10:10:52;;;;;;;0.90;0.70;;;;;;;7.07;100.00;92637.22;5316936;26;20062;-78
2024/04/10 10:13:28;;;;;;;0.95;0.70;;;;;;;7.19;100.00;92637.72;5307480;26;20087;-77
2024/04/10 10:16:02;;;;;;;0.70;0.70;;;;;;;7.24;100.00;92640.31;5309013;26;20016;-78
2024/04/10 10:18:29;;;;;;;4.80;0.90;;;;;;;7.30;100.00;92623.66;5328224;26;20037;-78
2024/04/10 10:21:06;;;;;;;1.65;0.57;;;;;;;7.46;100.00;92654.91;5318394;26;20029;-77
2024/04/10 10:23:40;;;;;;;0.85;0.80;;;;;;;7.49;100.00;92665.56;5316930;26;20045;-78
2024/04/10 10:26:08;;;;;;;1.85;0.95;;;;;;;7.54;100.00;92671.81;5320653;26;20033;-78
2024/04/10 10:28:36;;;;;;;0.70;0.70;;;;;;;7.59;93.53;92677.81;5304557;27;20387;-78
2024/04/10 10:31:21;;;;;;;1.35;0.80;;;;;;;7.60;100.00;92676.75;5306897;26;20001;-78
2024/04/10 10:33:48;;;;;;;0.57;0.57;;;;;;;7.59;96.48;92696.06;5354217;26;20386;-78
2024/04/10 10:36:14;;;;;;;1.38;0.70;;;;;;;7.64;92.91;92731.75;5305354;26;20412;-78
2024/04/10 10:38:42;;;;;;;1.50;0.80;;;;;;;7.47;100.00;92726.78;5363049;26;20005;-78
2024/04/10 10:41:11;;;;;;;0.93;0.88;;;;;;;7.48;92.85;92731.75;5320425;26;20080;-78
2024/04/10 10:43:38;;;;;;;0.73;0.73;;;;;;;7.46;88.28;92746.06;5315632;26;20005;-78
2024/04/10 10:46:05;;;;;;;5.28;1.33;;;;;;;7.43;90.95;92757.00;5309290;26;20037;-78
2024/04/10 10:48:31;;;;;;;0.60;0.60;;;;;;;7.41;91.55;92769.50;5320860;26;20072;-78
2024/04/10 10:50:58;;;;;;;1.52;0.60;;;;;;;7.42;90.78;92786.69;5320657;26;20005;-79
2024/04/10 10:53:25;;;;;;;0.90;0.80;;;;;;;7.46;91.37;92795.56;5293652;27;20092;-78
2024/04/10 10:55:56;;;;;;;0.70;0.70;;;;;;;7.32;97.60;92782.25;5318632;26;20444;-78
2024/04/10 10:58:23;;;;;;;0.85;0.68;;;;;;;7.20;100.00;92785.09;5332913;26;20016;-78
2024/04/10 11:00:49;;;;;;;0.68;0.68;;;;;;;7.19;100.00;92793.16;5306419;26;19998;-79
2024/04/10 11:03:19;;;;;;;0.68;0.68;;;;;;;7.18;94.91;92802.81;5327350;26;20001;-78
2024/04/10 11:05:46;;;;;;;2.70;0.98;;;;;;;7.17;97.57;92813.47;5319057;26;20033;-78
2024/04/10 11:08:11;;;;;;;0.93;0.52;;;;;;;7.14;99.30;92827.78;5306972;26;20009;-78
2024/04/10 11:10:37;;;;;;;2.00;0.70;;;;;;;7.11;100.00;92812.66;5307016;26;20005;-78
2024/04/10 11:13:06;;;;;;;2.00;1.25;;;;;;;7.01;100.00;92828.25;5321823;26;20008;-78
2024/04/10 11:15:45;;;;;;;2.95;0.77;;;;;;;6.87;100.00;92822.75;5322773;26;20002;-78
2024/04/10 11:18:18;;;;;;;0.60;0.60;;;;;;;6.73;100.00;92811.22;5310923;26;20002;-78
2024/04/10 11:20:50;;;;;;;0.82;0.73;;;;;;;6.38;100.00;92815.22;5311425;26;20005;-78
2024/04/10 11:23:16;;;;;;;2.00;1.10;;;;;;;6.37;100.00;92816.25;5311049;26;20490;-78
2024/04/10 11:25:42;;;;;;;4.00;0.80;;;;;;;6.22;100.00;92806.56;5308774;27;20009;-78
2024/04/10 11:28:09;;;;;;;0.75;0.70;;;;;;;6.16;100.00;92810.16;5311697;26;20029;-78
2024/04/10 11:30:36;;;;;;;1.15;0.90;;;;;;;6.11;100.00;92833.53;5311693;26;20008;-78
2024/04/10 11:33:06;;;;;;;1.63;0.80;;;;;;;6.07;100.00;92824.66;5326577;26;20020;-78
2024/04/10 11:35:32;;;;;;;0.75;0.73;;;;;;;6.00;100.00;92817.06;5346646;26;20013;-78
2024/04/10 11:38:13;;;;;;;1.33;0.90;;;;;;;5.94;100.00;92846.59;5345523;26;20005;-78
2024/04/10 11:40:39;;;;;;;0.70;0.60;;;;;;;5.94;100.00;92854.41;5320715;26;20072;-78